sensor_id;sensor_type;location;lat;lon;timestamp;pressure;altitude;pressure_sealevel;temperature;humidity
54918;BME280;40818;50.562;7.454;2023-08-06T00:05:29;96711.06;;;13.30;100.00
54918;BME280;40818;50.562;7.454;2023-08-06T00:15:32;96713.53;;;13.32;100.00
54918;BME280;40818;50.562;7.454;2023-08-06T00:25:39;96708.19;;;13.34;100.00
54918;BME280;40818;50.562;7.454;2023-08-06T00:35:42;96685.31;;;13.18;100.00
54918;BME280;40818;50.562;7.454;2023-08-06T00:45:49;96679.75;;;13.03;100.00
54918;BME280;40818;50.562;7.454;2023-08-06T00:55:53;96677.94;;;13.13;100.00
54918;BME280;40818;50.562;7.454;2023-08-06T01:06:00;96676.78;;;13.25;100.00
54918;BME280;40818;50.562;7.454;2023-08-06T01:16:03;96680.75;;;13.39;100.00
54918;BME280;40818;50.562;7.454;2023-08-06T01:26:15;96669.88;;;13.44;100.00
54918;BME280;40818;50.562;7.454;2023-08-06T01:36:22;96658.88;;;13.50;100.00
54918;BME280;40818;50.562;7.454;2023-08-06T01:46:29;96629.28;;;13.31;100.00
54918;BME280;40818;50.562;7.454;2023-08-06T01:56:32;96623.88;;;13.15;100.00
54918;BME280;40818;50.562;7.454;2023-08-06T02:06:38;96620.13;;;12.90;100.00
54918;BME280;40818;50.562;7.454;2023-08-06T02:16:41;96620.75;;;12.74;100.00
54918;BME280;40818;50.562;7.454;2023-08-06T02:26:47;96615.69;;;12.72;100.00
54918;BME280;40818;50.562;7.454;2023-08-06T02:36:51;96608.25;;;12.68;100.00
54918;BME280;40818;50.562;7.454;2023-08-06T02:46:57;96592.81;;;12.56;100.00
54918;BME280;40818;50.562;7.454;2023-08-06T02:57:01;96586.69;;;12.48;100.00
54918;BME280;40818;50.562;7.454;2023-08-06T03:07:10;96570.63;;;12.52;100.00
54918;BME280;40818;50.562;7.454;2023-08-06T03:17:22;96561.03;;;12.62;100.00
54918;BME280;40818;50.562;7.454;2023-08-06T03:27:29;96547.91;;;12.54;100.00
54918;BME280;40818;50.562;7.454;2023-08-06T03:37:32;96540.78;;;12.46;100.00
54918;BME280;40818;50.562;7.454;2023-08-06T03:47:38;96540.50;;;12.40;100.00
54918;BME280;40818;50.562;7.454;2023-08-06T03:57:42;96533.25;;;12.43;100.00
54918;BME280;40818;50.562;7.454;2023-08-06T04:07:49;96534.88;;;12.54;100.00
54918;BME280;40818;50.562;7.454;2023-08-06T04:17:52;96539.34;;;12.62;100.00
54918;BME280;40818;50.562;7.454;2023-08-06T04:28:00;96520.03;;;12.64;100.00
54918;BME280;40818;50.562;7.454;2023-08-06T04:38:03;96523.03;;;12.70;100.00
54918;BME280;40818;50.562;7.454;2023-08-06T04:48:10;96526.41;;;12.80;100.00
54918;BME280;40818;50.562;7.454;2023-08-06T04:58:13;96523.66;;;12.81;100.00
54918;BME280;40818;50.562;7.454;2023-08-06T05:08:19;96522.47;;;13.04;100.00
54918;BME280;40818;50.562;7.454;2023-08-06T05:18:23;96529.44;;;13.31;100.00
54918;BME280;40818;50.562;7.454;2023-08-06T05:28:29;96529.09;;;13.44;100.00
54918;BME280;40818;50.562;7.454;2023-08-06T05:38:32;96527.28;;;13.54;100.00
54918;BME280;40818;50.562;7.454;2023-08-06T05:48:38;96533.69;;;13.60;100.00
54918;BME280;40818;50.562;7.454;2023-08-06T05:58:42;96533.53;;;13.61;100.00
54918;BME280;40818;50.562;7.454;2023-08-06T06:08:49;96548.94;;;13.73;100.00
54918;BME280;40818;50.562;7.454;2023-08-06T06:18:52;96554.91;;;13.83;100.00
54918;BME280;40818;50.562;7.454;2023-08-06T06:29:00;96558.19;;;13.85;100.00
54918;BME280;40818;50.562;7.454;2023-08-06T06:39:03;96560.09;;;14.01;100.00
54918;BME280;40818;50.562;7.454;2023-08-06T06:49:09;96562.63;;;14.11;100.00
54918;BME280;40818;50.562;7.454;2023-08-06T06:59:13;96564.91;;;14.32;100.00
54918;BME280;40818;50.562;7.454;2023-08-06T07:09:19;96578.22;;;14.47;100.00
54918;BME280;40818;50.562;7.454;2023-08-06T07:19:23;96570.44;;;14.55;100.00
54918;BME280;40818;50.562;7.454;2023-08-06T07:29:29;96589.34;;;14.67;100.00
54918;BME280;40818;50.562;7.454;2023-08-06T07:39:32;96594.84;;;14.90;100.00
54918;BME280;40818;50.562;7.454;2023-08-06T07:49:41;96600.50;;;15.12;100.00
54918;BME280;40818;50.562;7.454;2023-08-06T07:59:44;96589.59;;;15.25;100.00
54918;BME280;40818;50.562;7.454;2023-08-06T08:09:50;96602.59;;;15.43;100.00
54918;BME280;40818;50.562;7.454;2023-08-06T08:19:53;96596.44;;;15.60;100.00
54918;BME280;40818;50.562;7.454;2023-08-06T08:30:00;96606.09;;;15.76;100.00
54918;BME280;40818;50.562;7.454;2023-08-06T08:40:04;96605.50;;;15.91;100.00
54918;BME280;40818;50.562;7.454;2023-08-06T08:50:11;96607.50;;;16.05;100.00
54918;BME280;40818;50.562;7.454;2023-08-06T09:00:15;96605.38;;;16.33;100.00
54918;BME280;40818;50.562;7.454;2023-08-06T09:10:21;96617.44;;;16.76;100.00
54918;BME280;40818;50.562;7.454;2023-08-06T09:20:29;96620.06;;;16.92;100.00
54918;BME280;40818;50.562;7.454;2023-08-06T09:30:36;96626.13;;;16.76;100.00
54918;BME280;40818;50.562;7.454;2023-08-06T09:40:40;96634.00;;;16.51;100.00
54918;BME280;40818;50.562;7.454;2023-08-06T09:50:47;96644.78;;;16.07;100.00
54918;BME280;40818;50.562;7.454;2023-08-06T10:00:53;96655.13;;;15.58;100.00
54918;BME280;40818;50.562;7.454;2023-08-06T10:10:59;96654.75;;;15.18;100.00
54918;BME280;40818;50.562;7.454;2023-08-06T10:21:07;96667.16;;;14.63;100.00
54918;BME280;40818;50.562;7.454;2023-08-06T10:31:14;96691.41;;;14.38;100.00
54918;BME280;40818;50.562;7.454;2023-08-06T10:41:23;96695.63;;;14.03;100.00
54918;BME280;40818;50.562;7.454;2023-08-06T10:51:30;96708.09;;;13.63;100.00
54918;BME280;40818;50.562;7.454;2023-08-06T11:01:33;96714.13;;;13.16;100.00
54918;BME280;40818;50.562;7.454;2023-08-06T11:11:39;96754.47;;;13.02;100.00
54918;BME280;40818;50.562;7.454;2023-08-06T11:21:43;96767.09;;;12.87;100.00
54918;BME280;40818;50.562;7.454;2023-08-06T11:31:50;96783.94;;;12.73;100.00
54918;BME280;40818;50.562;7.454;2023-08-06T11:41:54;96787.38;;;12.54;100.00
54918;BME280;40818;50.562;7.454;2023-08-06T11:52:08;96786.84;;;12.60;100.00
54918;BME280;40818;50.562;7.454;2023-08-06T12:02:11;96800.28;;;12.75;100.00
54918;BME280;40818;50.562;7.454;2023-08-06T12:12:18;96801.94;;;12.86;100.00
54918;BME280;40818;50.562;7.454;2023-08-06T12:22:21;96823.56;;;12.87;100.00
54918;BME280;40818;50.562;7.454;2023-08-06T12:32:27;96829.06;;;13.03;100.00
54918;BME280;40818;50.562;7.454;2023-08-06T12:42:31;96840.56;;;13.10;100.00
54918;BME280;40818;50.562;7.454;2023-08-06T12:52:37;96853.88;;;13.27;100.00
54918;BME280;40818;50.562;7.454;2023-08-06T13:02:40;96874.00;;;13.35;100.00
54918;BME280;40818;50.562;7.454;2023-08-06T13:12:46;96886.53;;;13.41;100.00
54918;BME280;40818;50.562;7.454;2023-08-06T13:22:50;96908.63;;;13.46;100.00
54918;BME280;40818;50.562;7.454;2023-08-06T13:32:56;96903.41;;;13.46;100.00
54918;BME280;40818;50.562;7.454;2023-08-06T13:43:00;96927.00;;;13.45;100.00
54918;BME280;40818;50.562;7.454;2023-08-06T13:53:06;96930.25;;;13.27;100.00
54918;BME280;40818;50.562;7.454;2023-08-06T14:03:10;96940.97;;;13.14;100.00
54918;BME280;40818;50.562;7.454;2023-08-06T14:13:16;96941.38;;;13.10;100.00
54918;BME280;40818;50.562;7.454;2023-08-06T14:23:19;96962.22;;;13.00;100.00
54918;BME280;40818;50.562;7.454;2023-08-06T14:33:25;96961.50;;;12.98;100.00
54918;BME280;40818;50.562;7.454;2023-08-06T14:43:29;96973.84;;;12.96;100.00
54918;BME280;40818;50.562;7.454;2023-08-06T14:53:35;96990.84;;;12.90;100.00
54918;BME280;40818;50.562;7.454;2023-08-06T15:03:38;96997.41;;;12.85;100.00
54918;BME280;40818;50.562;7.454;2023-08-06T15:13:44;97008.09;;;12.91;100.00
54918;BME280;40818;50.562;7.454;2023-08-06T15:23:48;97025.41;;;13.02;100.00
54918;BME280;40818;50.562;7.454;2023-08-06T15:33:54;97024.59;;;13.02;100.00
54918;BME280;40818;50.562;7.454;2023-08-06T15:43:57;97034.16;;;12.91;100.00
54918;BME280;40818;50.562;7.454;2023-08-06T15:54:03;97050.41;;;12.74;100.00
54918;BME280;40818;50.562;7.454;2023-08-06T16:04:07;97050.50;;;12.62;100.00
54918;BME280;40818;50.562;7.454;2023-08-06T16:14:13;97063.44;;;12.74;100.00
54918;BME280;40818;50.562;7.454;2023-08-06T16:24:16;97069.47;;;12.74;100.00
54918;BME280;40818;50.562;7.454;2023-08-06T16:34:22;97077.97;;;12.76;100.00
54918;BME280;40818;50.562;7.454;2023-08-06T16:44:29;97083.19;;;12.76;100.00
54918;BME280;40818;50.562;7.454;2023-08-06T16:54:35;97097.50;;;12.61;100.00
54918;BME280;40818;50.562;7.454;2023-08-06T17:04:38;97102.13;;;12.57;100.00
54918;BME280;40818;50.562;7.454;2023-08-06T17:14:44;97108.59;;;12.63;100.00
54918;BME280;40818;50.562;7.454;2023-08-06T17:24:48;97102.75;;;12.50;100.00
54918;BME280;40818;50.562;7.454;2023-08-06T17:34:54;97113.38;;;12.37;100.00
54918;BME280;40818;50.562;7.454;2023-08-06T17:44:57;97119.31;;;12.27;100.00
54918;BME280;40818;50.562;7.454;2023-08-06T17:55:05;97116.09;;;12.14;100.00
54918;BME280;40818;50.562;7.454;2023-08-06T18:05:08;97126.75;;;12.11;100.00
54918;BME280;40818;50.562;7.454;2023-08-06T18:15:18;97140.97;;;12.07;100.00
54918;BME280;40818;50.562;7.454;2023-08-06T18:25:21;97146.28;;;12.05;100.00
54918;BME280;40818;50.562;7.454;2023-08-06T18:35:27;97159.09;;;11.97;100.00
54918;BME280;40818;50.562;7.454;2023-08-06T18:45:32;97164.84;;;12.01;100.00
54918;BME280;40818;50.562;7.454;2023-08-06T18:55:47;97172.22;;;11.95;100.00
54918;BME280;40818;50.562;7.454;2023-08-06T19:05:51;97181.19;;;11.91;100.00
54918;BME280;40818;50.562;7.454;2023-08-06T19:15:57;97194.66;;;11.85;100.00
54918;BME280;40818;50.562;7.454;2023-08-06T19:26:01;97210.88;;;11.77;100.00
54918;BME280;40818;50.562;7.454;2023-08-06T19:36:07;97234.63;;;11.73;100.00
54918;BME280;40818;50.562;7.454;2023-08-06T19:46:10;97244.47;;;11.58;100.00
54918;BME280;40818;50.562;7.454;2023-08-06T19:56:16;97277.91;;;11.51;100.00
54918;BME280;40818;50.562;7.454;2023-08-06T20:06:20;97264.28;;;11.36;100.00
54918;BME280;40818;50.562;7.454;2023-08-06T20:16:30;97277.84;;;11.28;100.00
54918;BME280;40818;50.562;7.454;2023-08-06T20:26:33;97285.75;;;11.16;100.00
54918;BME280;40818;50.562;7.454;2023-08-06T20:36:39;97285.63;;;11.17;100.00
54918;BME280;40818;50.562;7.454;2023-08-06T20:46:43;97308.44;;;11.14;100.00
54918;BME280;40818;50.562;7.454;2023-08-06T20:56:49;97318.78;;;11.02;100.00
54918;BME280;40818;50.562;7.454;2023-08-06T21:06:52;97318.78;;;11.02;100.00
54918;BME280;40818;50.562;7.454;2023-08-06T21:16:58;97309.66;;;10.97;100.00
54918;BME280;40818;50.562;7.454;2023-08-06T21:27:02;97317.69;;;10.93;100.00
54918;BME280;40818;50.562;7.454;2023-08-06T21:37:08;97335.16;;;10.91;100.00
54918;BME280;40818;50.562;7.454;2023-08-06T21:47:12;97330.91;;;10.90;100.00
54918;BME280;40818;50.562;7.454;2023-08-06T21:57:18;97332.06;;;10.86;100.00
54918;BME280;40818;50.562;7.454;2023-08-06T22:07:21;97325.53;;;10.81;100.00
54918;BME280;40818;50.562;7.454;2023-08-06T22:17:29;97331.41;;;10.71;100.00
54918;BME280;40818;50.562;7.454;2023-08-06T22:27:33;97324.19;;;10.64;100.00
54918;BME280;40818;50.562;7.454;2023-08-06T22:37:40;97331.97;;;10.64;100.00
54918;BME280;40818;50.562;7.454;2023-08-06T22:47:43;97341.72;;;10.60;100.00
54918;BME280;40818;50.562;7.454;2023-08-06T22:57:49;97348.59;;;10.61;100.00
54918;BME280;40818;50.562;7.454;2023-08-06T23:07:53;97348.69;;;10.59;100.00
54918;BME280;40818;50.562;7.454;2023-08-06T23:17:59;97355.16;;;10.54;100.00
54918;BME280;40818;50.562;7.454;2023-08-06T23:28:02;97357.25;;;10.49;100.00
54918;BME280;40818;50.562;7.454;2023-08-06T23:38:08;97356.31;;;10.50;100.00
54918;BME280;40818;50.562;7.454;2023-08-06T23:48:12;97361.34;;;10.40;100.00
54918;BME280;40818;50.562;7.454;2023-08-06T23:58:18;97359.94;;;10.47;100.00
